createdAt,value
2022-12-12T00:01:55.165Z,21.97
2022-12-12T00:04:23.347Z,19.37
2022-12-12T00:06:51.454Z,17.20
2022-12-12T00:09:19.525Z,18.63
2022-12-12T00:11:47.642Z,19.53
2022-12-12T00:14:15.744Z,17.70
2022-12-12T00:16:43.848Z,21.43
2022-12-12T00:19:13.311Z,23.10
2022-12-12T00:21:41.389Z,19.87
2022-12-12T00:24:10.014Z,18.57
2022-12-12T00:26:38.227Z,16.37
2022-12-12T00:29:06.623Z,18.47
2022-12-12T00:31:35.015Z,16.53
2022-12-12T00:34:03.323Z,19.27
2022-12-12T00:36:33.430Z,16.27
2022-12-12T00:39:01.768Z,19.53
2022-12-12T00:41:29.906Z,25.60
2022-12-12T00:43:58.120Z,17.87
2022-12-12T00:46:26.958Z,19.20
2022-12-12T00:48:57.721Z,23.50
2022-12-12T00:51:28.345Z,18.33
2022-12-12T00:53:59.249Z,15.33
2022-12-12T00:56:30.815Z,17.10
2022-12-12T00:58:59.126Z,18.17
2022-12-12T01:01:30.856Z,20.17
2022-12-12T01:03:59.888Z,18.03
2022-12-12T01:06:29.775Z,19.47
2022-12-12T01:09:00.445Z,17.63
2022-12-12T01:11:28.906Z,18.57
2022-12-12T01:13:57.849Z,17.63
2022-12-12T01:16:26.102Z,17.97
2022-12-12T01:18:54.448Z,20.20
2022-12-12T01:21:23.307Z,17.13
2022-12-12T01:23:51.893Z,18.33
2022-12-12T01:26:24.628Z,19.60
2022-12-12T01:28:53.611Z,19.10
2022-12-12T01:31:22.474Z,17.13
2022-12-12T01:33:50.736Z,17.83
2022-12-12T01:36:21.904Z,17.93
2022-12-12T01:38:54.190Z,19.13
2022-12-12T01:41:24.428Z,22.77
2022-12-12T01:43:52.833Z,16.87
2022-12-12T01:46:44.221Z,19.03
2022-12-12T01:49:23.630Z,19.67
2022-12-12T01:51:55.952Z,18.70
2022-12-12T01:54:28.676Z,20.40
2022-12-12T01:56:59.629Z,19.47
2022-12-12T01:59:29.250Z,20.03
2022-12-12T02:01:57.755Z,19.53
2022-12-12T02:04:28.638Z,20.47
2022-12-12T02:06:58.040Z,18.93
2022-12-12T02:09:27.749Z,18.23
2022-12-12T02:11:59.416Z,20.33
2022-12-12T02:14:31.108Z,21.73
2022-12-12T02:17:30.176Z,19.90
2022-12-12T02:20:41.067Z,20.77
2022-12-12T02:24:12.353Z,18.30
2022-12-12T02:27:34.259Z,20.07
2022-12-12T02:30:12.052Z,16.87
2022-12-12T02:33:07.749Z,22.17
2022-12-12T02:35:50.199Z,16.67
2022-12-12T02:38:28.861Z,23.07
2022-12-12T02:41:11.583Z,17.63
2022-12-12T02:43:51.844Z,17.07
2022-12-12T02:46:31.254Z,17.50
2022-12-12T02:49:04.704Z,20.13
2022-12-12T02:51:34.364Z,19.17
2022-12-12T02:54:04.827Z,15.97
2022-12-12T02:56:51.513Z,22.57
2022-12-12T02:59:26.985Z,18.17
2022-12-12T03:02:38.074Z,15.50
2022-12-12T03:05:41.559Z,22.17
2022-12-12T03:08:30.175Z,20.00
2022-12-12T03:11:02.364Z,19.10
2022-12-12T03:13:41.445Z,19.90
2022-12-12T03:16:27.518Z,17.93
2022-12-12T03:19:02.386Z,17.93
2022-12-12T03:21:40.775Z,20.60
2022-12-12T03:24:21.519Z,19.70
2022-12-12T03:26:56.802Z,18.37
2022-12-12T03:29:30.115Z,16.30
2022-12-12T03:32:04.961Z,20.10
2022-12-12T03:34:38.800Z,19.47
2022-12-12T03:37:14.203Z,14.80
2022-12-12T03:39:48.476Z,15.87
2022-12-12T03:42:23.383Z,19.63
2022-12-12T03:44:59.279Z,20.27
2022-12-12T03:47:33.756Z,21.90
2022-12-12T03:50:08.912Z,18.93
2022-12-12T03:52:44.450Z,18.63
2022-12-12T03:55:17.848Z,17.93
2022-12-12T03:57:54.064Z,16.37
2022-12-12T04:00:22.285Z,21.07
2022-12-12T04:03:00.657Z,21.43
2022-12-12T04:06:00.943Z,16.53
2022-12-12T04:08:31.591Z,18.73
2022-12-12T04:11:25.487Z,18.77
2022-12-12T04:14:07.687Z,15.40
2022-12-12T04:16:40.813Z,18.27
2022-12-12T04:19:34.654Z,18.43
2022-12-12T04:22:27.354Z,16.40
2022-12-12T04:25:01.799Z,20.03
2022-12-12T04:27:36.503Z,17.10
2022-12-12T04:30:08.614Z,16.20
2022-12-12T04:32:43.268Z,17.17
2022-12-12T04:35:15.218Z,18.27
2022-12-12T04:37:47.503Z,20.13
2022-12-12T04:40:23.081Z,18.10
2022-12-12T04:42:56.283Z,21.03
2022-12-12T04:45:29.816Z,17.70
2022-12-12T04:47:59.678Z,16.70
2022-12-12T04:50:31.580Z,18.07
2022-12-12T04:53:02.885Z,17.70
2022-12-12T04:55:35.469Z,18.80
2022-12-12T04:58:05.602Z,21.20
2022-12-12T05:00:42.574Z,20.73
2022-12-12T05:03:19.761Z,19.53
2022-12-12T05:05:55.374Z,19.23
2022-12-12T05:08:30.539Z,22.13
2022-12-12T05:11:03.324Z,24.93
2022-12-12T05:13:33.869Z,18.00
2022-12-12T05:16:05.049Z,19.47
2022-12-12T05:18:33.151Z,24.13
2022-12-12T05:21:01.237Z,17.90
2022-12-12T05:23:34.459Z,20.30
2022-12-12T05:26:10.053Z,18.27
2022-12-12T05:28:38.676Z,18.37
2022-12-12T05:31:06.988Z,20.50
2022-12-12T05:33:35.539Z,18.03
2022-12-12T05:36:03.693Z,18.00
2022-12-12T05:38:31.774Z,17.93
2022-12-12T05:40:59.939Z,17.27
2022-12-12T05:43:29.399Z,18.73
2022-12-12T05:45:57.657Z,17.07
2022-12-12T05:48:25.873Z,20.70
2022-12-12T05:50:54.439Z,17.47
2022-12-12T05:53:23.337Z,20.50
2022-12-12T05:55:52.246Z,23.03
2022-12-12T05:58:20.698Z,19.20
2022-12-12T06:00:51.469Z,18.23
2022-12-12T06:03:20.464Z,20.10
2022-12-12T06:05:48.766Z,18.00
2022-12-12T06:08:20.906Z,22.73
2022-12-12T06:10:51.713Z,23.60
2022-12-12T06:13:19.845Z,15.97
2022-12-12T06:15:49.387Z,20.57
2022-12-12T06:18:18.035Z,16.20
2022-12-12T06:20:46.164Z,16.80
2022-12-12T06:23:14.290Z,16.40
2022-12-12T06:25:42.472Z,19.70
2022-12-12T06:28:10.649Z,19.87
2022-12-12T06:30:39.445Z,20.17
2022-12-12T06:33:08.938Z,18.77
2022-12-12T06:35:37.182Z,19.07
2022-12-12T06:38:05.344Z,20.17
2022-12-12T06:40:33.674Z,20.03
2022-12-12T06:43:01.836Z,21.47
2022-12-12T06:45:30.370Z,17.37
2022-12-12T06:47:59.048Z,18.40
2022-12-12T06:50:28.600Z,18.57
2022-12-12T06:52:56.737Z,24.73
2022-12-12T06:55:24.855Z,18.67
2022-12-12T06:57:52.993Z,19.53
2022-12-12T07:00:21.944Z,21.87
2022-12-12T07:02:50.641Z,18.27
2022-12-12T07:05:19.113Z,20.67
2022-12-12T07:07:48.544Z,20.67
2022-12-12T07:10:21.097Z,20.57
2022-12-12T07:12:53.301Z,18.17
2022-12-12T07:15:24.268Z,19.53
2022-12-12T07:17:54.154Z,23.73
2022-12-12T07:20:22.321Z,19.10
2022-12-12T07:22:51.819Z,23.63
2022-12-12T07:25:19.866Z,20.07
2022-12-12T07:27:48.020Z,18.60
2022-12-12T07:30:16.119Z,18.93
2022-12-12T07:32:44.248Z,21.57
2022-12-12T07:35:12.580Z,23.30
2022-12-12T07:37:40.853Z,19.50
2022-12-12T07:40:12.478Z,23.20
2022-12-12T07:42:40.608Z,22.13
2022-12-12T07:45:16.467Z,17.17
2022-12-12T07:47:46.569Z,20.40
2022-12-12T07:50:15.409Z,20.80
2022-12-12T07:52:43.583Z,18.17
2022-12-12T07:55:13.642Z,18.40
2022-12-12T07:57:42.111Z,17.87
2022-12-12T08:00:13.497Z,18.70
2022-12-12T08:02:41.820Z,20.03
2022-12-12T08:05:11.010Z,22.33
2022-12-12T08:07:39.415Z,16.80
2022-12-12T08:10:08.156Z,22.93
2022-12-12T08:12:37.665Z,18.73
2022-12-12T08:15:06.775Z,21.90
2022-12-12T08:17:35.395Z,23.23
2022-12-12T08:20:03.781Z,19.17
2022-12-12T08:22:31.897Z,18.77
2022-12-12T08:25:00.035Z,23.37
2022-12-12T08:27:28.311Z,16.93
2022-12-12T08:29:58.146Z,25.60
2022-12-12T08:32:26.278Z,13.97
2022-12-12T08:35:24.364Z,20.00
2022-12-12T08:37:52.472Z,17.10
2022-12-12T08:40:30.910Z,17.63
2022-12-12T08:43:01.776Z,21.97
2022-12-12T08:48:53.807Z,19.60
2022-12-12T08:51:22.207Z,17.50
2022-12-12T08:53:53.089Z,18.17
2022-12-12T08:56:23.750Z,20.97
2022-12-12T08:58:53.445Z,23.73
2022-12-12T09:01:26.833Z,18.37
2022-12-12T09:03:57.142Z,19.17
2022-12-12T09:06:26.976Z,18.90
2022-12-12T09:08:57.108Z,18.67
2022-12-12T09:11:26.112Z,14.93
2022-12-12T09:13:54.634Z,16.07
2022-12-12T09:16:26.440Z,19.77
2022-12-12T09:18:54.717Z,17.63
2022-12-12T09:21:23.106Z,17.83
2022-12-12T09:23:52.276Z,16.47
2022-12-12T09:26:20.388Z,21.10
2022-12-12T09:28:49.873Z,16.00
2022-12-12T09:31:19.431Z,20.40
2022-12-12T09:33:50.500Z,16.63
2022-12-12T09:36:21.248Z,21.00
2022-12-12T09:38:49.477Z,19.20
2022-12-12T09:41:20.381Z,15.03
2022-12-12T09:43:55.691Z,17.20
2022-12-12T09:46:35.254Z,18.37
2022-12-12T09:49:14.080Z,16.23
2022-12-12T09:51:45.579Z,18.20
2022-12-12T09:54:17.488Z,14.83
2022-12-12T09:56:59.538Z,18.90
2022-12-12T09:59:38.676Z,17.93
2022-12-12T10:02:38.254Z,17.53
2022-12-12T10:05:26.755Z,17.53
2022-12-12T10:08:06.395Z,22.43
2022-12-12T10:10:37.829Z,17.20
2022-12-12T10:13:15.317Z,18.83
2022-12-12T10:15:47.177Z,20.50
2022-12-12T10:18:22.631Z,20.37
2022-12-12T10:20:56.343Z,20.63
2022-12-12T10:23:34.831Z,25.97
2022-12-12T10:26:08.076Z,18.77
2022-12-12T10:28:37.225Z,18.20
2022-12-12T10:31:30.895Z,20.83
2022-12-12T10:34:31.018Z,19.57
2022-12-12T10:37:15.119Z,19.97
2022-12-12T10:39:53.916Z,22.13
2022-12-12T10:42:30.264Z,18.57
2022-12-12T10:45:29.998Z,20.07
2022-12-12T10:47:58.155Z,17.63
2022-12-12T10:50:33.778Z,16.87
2022-12-12T10:53:07.632Z,19.43
2022-12-12T10:55:43.188Z,23.53
2022-12-12T10:58:14.756Z,17.37
2022-12-12T11:00:45.587Z,16.60
2022-12-12T11:03:29.426Z,19.20
2022-12-12T11:05:58.578Z,19.03
2022-12-12T11:08:33.869Z,19.47
2022-12-12T11:11:18.918Z,19.40
2022-12-12T11:13:52.601Z,21.63
2022-12-12T11:16:24.962Z,16.67
2022-12-12T11:19:06.726Z,17.60
2022-12-12T11:21:37.728Z,14.50
2022-12-12T11:24:34.257Z,21.90
2022-12-12T11:27:06.333Z,17.63
2022-12-12T11:29:43.726Z,18.53
2022-12-12T11:32:15.982Z,17.53
2022-12-12T11:34:48.968Z,16.90
2022-12-12T11:37:20.492Z,17.73
2022-12-12T11:39:53.163Z,14.60
2022-12-12T11:42:25.955Z,19.23
2022-12-12T11:45:11.016Z,18.90
2022-12-12T11:47:42.377Z,17.67
2022-12-12T11:50:21.891Z,15.13
2022-12-12T11:52:52.415Z,22.57
2022-12-12T11:55:36.241Z,19.50
2022-12-12T11:58:18.026Z,18.27
2022-12-12T12:00:54.725Z,22.73
2022-12-12T12:04:03.718Z,16.57
2022-12-12T12:06:52.136Z,17.47
2022-12-12T12:09:30.226Z,19.30
2022-12-12T12:12:10.870Z,31.07
2022-12-12T12:14:58.163Z,15.73
2022-12-12T12:17:42.909Z,19.53
2022-12-12T12:20:23.177Z,15.93
2022-12-12T12:23:05.351Z,15.33
2022-12-12T12:25:46.911Z,19.77
2022-12-12T12:28:59.024Z,14.70
2022-12-12T12:31:37.536Z,14.33
2022-12-12T12:34:22.055Z,18.93
2022-12-12T12:37:10.865Z,17.17
2022-12-12T12:40:15.532Z,12.83
2022-12-12T12:43:19.742Z,13.27
2022-12-12T12:45:56.609Z,12.43
2022-12-12T12:48:34.445Z,11.10
2022-12-12T12:51:10.528Z,12.73
2022-12-12T12:53:44.454Z,11.10
2022-12-12T12:56:26.549Z,14.63
2022-12-12T12:58:59.283Z,12.43
2022-12-12T13:01:35.246Z,14.90
2022-12-12T13:04:13.189Z,11.63
2022-12-12T13:06:49.319Z,12.43
2022-12-12T13:09:29.836Z,8.10
2022-12-12T13:12:06.035Z,6.77
2022-12-12T13:14:43.529Z,7.03
2022-12-12T13:17:21.519Z,9.70
2022-12-12T13:19:53.439Z,6.80
2022-12-12T13:22:34.475Z,8.10
2022-12-12T13:25:12.533Z,6.23
2022-12-12T13:27:45.932Z,4.43
2022-12-12T13:30:23.394Z,6.50
2022-12-12T13:33:19.490Z,7.87
2022-12-12T13:35:51.121Z,6.47
2022-12-12T13:38:22.993Z,6.00
2022-12-12T13:41:02.359Z,4.97
2022-12-12T13:43:43.758Z,4.13
2022-12-12T13:46:38.946Z,6.17
2022-12-12T13:49:48.936Z,5.63
2022-12-12T13:52:29.692Z,6.20
2022-12-12T13:55:22.870Z,5.20
2022-12-12T13:58:19.651Z,3.60
2022-12-12T14:00:48.401Z,2.23
2022-12-12T14:03:31.469Z,3.30
2022-12-12T14:06:13.345Z,3.17
2022-12-12T14:08:52.592Z,2.67
2022-12-12T14:11:34.127Z,2.23
2022-12-12T14:14:09.886Z,6.97
2022-12-12T14:16:39.381Z,3.97
2022-12-12T14:19:21.983Z,3.10
2022-12-12T14:21:51.593Z,2.63
2022-12-12T14:25:05.727Z,3.70
2022-12-12T14:28:04.295Z,2.40
2022-12-12T14:30:53.382Z,12.37
2022-12-12T14:34:10.144Z,17.10
2022-12-12T14:37:37.023Z,14.50
2022-12-12T14:40:16.338Z,19.73
2022-12-12T14:43:20.073Z,17.17
2022-12-12T14:45:56.351Z,21.27
2022-12-12T14:48:27.811Z,21.90
2022-12-12T14:51:05.910Z,22.60
2022-12-12T14:53:46.777Z,21.97
2022-12-12T14:56:18.107Z,20.23
2022-12-12T14:58:57.215Z,22.47
2022-12-12T15:01:33.118Z,21.23
2022-12-12T15:04:05.001Z,25.27
2022-12-12T15:06:37.391Z,23.67
2022-12-12T15:09:21.217Z,19.27
2022-12-12T15:11:50.882Z,21.27
2022-12-12T15:14:22.128Z,22.20
2022-12-12T15:16:56.574Z,22.03
2022-12-12T15:19:30.247Z,23.33
2022-12-12T15:21:59.727Z,28.97
2022-12-12T15:24:37.736Z,17.27
2022-12-12T15:27:07.392Z,24.57
2022-12-12T15:29:38.428Z,22.37
2022-12-12T15:32:10.207Z,25.43
2022-12-12T15:34:42.257Z,29.30
2022-12-12T15:37:17.801Z,18.60
2022-12-12T15:39:47.714Z,29.63
2022-12-12T15:42:16.987Z,31.20
2022-12-12T15:44:47.247Z,26.17
2022-12-12T15:47:17.155Z,24.47
2022-12-12T15:49:47.293Z,23.97
2022-12-12T15:52:22.553Z,22.47
2022-12-12T15:54:55.577Z,23.10
2022-12-12T15:57:26.711Z,24.73
2022-12-12T15:59:57.505Z,24.23
2022-12-12T16:02:29.373Z,25.23
2022-12-12T16:05:06.391Z,26.57
2022-12-12T16:07:37.734Z,26.07
2022-12-12T16:10:24.124Z,23.33
2022-12-12T16:13:02.336Z,21.40
2022-12-12T16:15:35.567Z,23.73
2022-12-12T16:18:15.787Z,21.83
2022-12-12T16:20:48.519Z,22.87
2022-12-12T16:23:24.349Z,23.13
2022-12-12T16:25:54.266Z,21.93
2022-12-12T16:28:25.991Z,23.50
2022-12-12T16:31:01.313Z,23.23
2022-12-12T16:33:34.081Z,21.73
2022-12-12T16:36:05.175Z,25.37
2022-12-12T16:38:34.099Z,22.50
2022-12-12T16:41:07.319Z,25.30
2022-12-12T16:43:35.985Z,34.17
2022-12-12T16:46:04.475Z,34.27
2022-12-12T16:48:35.933Z,38.93
2022-12-12T16:51:07.213Z,36.70
2022-12-12T16:53:36.589Z,34.70
2022-12-12T16:56:07.029Z,40.10
2022-12-12T16:58:35.242Z,41.07
2022-12-12T17:01:03.602Z,49.60
2022-12-12T17:03:32.857Z,32.17
2022-12-12T17:06:01.746Z,21.47
2022-12-12T17:08:30.442Z,18.60
2022-12-12T17:11:10.704Z,25.87
2022-12-12T17:13:46.928Z,19.83
2022-12-12T17:16:15.476Z,26.03
2022-12-12T17:18:43.601Z,26.67
2022-12-12T17:21:11.878Z,17.67
2022-12-12T17:23:41.704Z,23.83
2022-12-12T17:26:09.937Z,19.93
2022-12-12T17:28:38.482Z,23.00
2022-12-12T17:31:10.863Z,19.73
2022-12-12T17:33:49.630Z,25.90
2022-12-12T17:36:18.841Z,27.20
2022-12-12T17:38:49.058Z,24.10
2022-12-12T17:41:21.138Z,17.53
2022-12-12T17:43:55.132Z,26.47
2022-12-12T17:46:27.747Z,27.03
2022-12-12T17:48:58.223Z,23.10
2022-12-12T17:51:26.840Z,25.97
2022-12-12T17:53:56.356Z,25.23
2022-12-12T17:56:27.051Z,24.73
2022-12-12T17:58:55.645Z,27.77
2022-12-12T18:01:27.619Z,22.13
2022-12-12T18:03:57.117Z,23.57
2022-12-12T18:06:28.371Z,50.13
2022-12-12T18:08:56.832Z,27.53
2022-12-12T18:11:27.801Z,23.40
2022-12-12T18:13:57.822Z,26.67
2022-12-12T18:16:30.829Z,25.33
2022-12-12T18:18:59.601Z,23.57
2022-12-12T18:24:20.984Z,22.77
2022-12-12T18:26:53.849Z,33.43
2022-12-12T18:29:22.695Z,26.13
2022-12-12T18:31:52.893Z,27.73
2022-12-12T18:34:21.561Z,22.57
2022-12-12T18:36:50.318Z,25.20
2022-12-12T18:39:19.202Z,21.70
2022-12-12T18:41:48.591Z,25.30
2022-12-12T18:44:17.356Z,30.53
2022-12-12T18:46:46.013Z,30.43
2022-12-12T18:49:18.218Z,30.23
2022-12-12T18:51:48.085Z,25.77
2022-12-12T18:54:17.546Z,30.33
2022-12-12T18:56:47.497Z,30.63
2022-12-12T18:59:17.327Z,29.90
2022-12-12T19:01:45.844Z,27.20
2022-12-12T19:04:22.696Z,21.27
2022-12-12T19:06:53.332Z,22.60
2022-12-12T19:09:22.457Z,21.07
2022-12-12T19:11:55.587Z,22.47
2022-12-12T19:14:45.883Z,17.97
2022-12-12T19:17:25.388Z,20.07
2022-12-12T19:19:56.005Z,18.60
2022-12-12T19:22:44.509Z,18.33
2022-12-12T19:25:13.482Z,17.70
2022-12-12T19:27:42.214Z,19.80
2022-12-12T19:30:13.558Z,15.87
2022-12-12T19:32:43.230Z,22.83
2022-12-12T19:35:12.945Z,17.00
2022-12-12T19:37:41.307Z,16.97
2022-12-12T19:40:12.103Z,18.03
2022-12-12T19:42:41.128Z,18.40
2022-12-12T19:45:11.029Z,15.97
2022-12-12T19:47:39.340Z,15.93
2022-12-12T19:50:08.238Z,18.90
2022-12-12T19:52:37.920Z,15.10
2022-12-12T19:55:07.534Z,18.50
2022-12-12T19:57:35.839Z,21.47
2022-12-12T20:00:04.866Z,20.43
2022-12-12T20:02:37.856Z,21.57
2022-12-12T20:05:06.938Z,21.17
2022-12-12T20:07:35.329Z,17.67
2022-12-12T20:10:05.899Z,22.40
2022-12-12T20:12:34.288Z,23.17
2022-12-12T20:15:04.103Z,18.53
2022-12-12T20:17:32.402Z,15.50
2022-12-12T20:20:00.724Z,19.23
2022-12-12T20:22:29.004Z,18.17
2022-12-12T20:24:57.318Z,18.17
2022-12-12T20:27:28.820Z,19.40
2022-12-12T20:29:57.280Z,18.83
2022-12-12T20:32:25.896Z,19.67
2022-12-12T20:34:54.128Z,19.03
2022-12-12T20:37:22.416Z,20.10
2022-12-12T20:39:50.800Z,20.03
2022-12-12T20:42:18.903Z,22.00
2022-12-12T20:44:49.911Z,15.87
2022-12-12T20:47:18.257Z,21.70
2022-12-12T20:49:48.226Z,18.00
2022-12-12T20:52:16.318Z,20.73
2022-12-12T20:54:44.428Z,22.47
2022-12-12T20:57:12.536Z,20.77
2022-12-12T20:59:40.625Z,19.23
2022-12-12T21:02:12.416Z,18.77
2022-12-12T21:04:40.778Z,18.27
2022-12-12T21:07:09.541Z,16.53
2022-12-12T21:09:37.879Z,17.30
2022-12-12T21:12:06.470Z,19.57
2022-12-12T21:14:36.985Z,17.33
2022-12-12T21:17:05.229Z,17.73
2022-12-12T21:19:35.761Z,19.63
2022-12-12T21:22:05.504Z,16.80
2022-12-12T21:24:33.621Z,17.87
2022-12-12T21:27:01.700Z,14.60
2022-12-12T21:29:29.816Z,24.77
2022-12-12T21:31:57.979Z,30.10
2022-12-12T21:34:26.131Z,19.37
2022-12-12T21:36:56.878Z,22.97
2022-12-12T21:39:27.668Z,18.50
2022-12-12T21:41:55.844Z,18.33
2022-12-12T21:44:24.251Z,18.40
2022-12-12T21:46:53.198Z,17.93
2022-12-12T21:49:26.285Z,17.40
2022-12-12T21:51:59.067Z,19.07
2022-12-12T21:54:29.048Z,19.70
2022-12-12T21:56:57.911Z,19.03
2022-12-12T21:59:27.011Z,17.47
2022-12-12T22:01:56.638Z,27.00
2022-12-12T22:04:25.487Z,16.93
2022-12-12T22:06:53.904Z,21.33
2022-12-12T22:09:23.658Z,14.77
2022-12-12T22:11:52.465Z,13.47
2022-12-12T22:14:32.312Z,14.50
2022-12-12T22:17:01.885Z,14.20
2022-12-12T22:19:30.120Z,18.70
2022-12-12T22:21:58.267Z,16.80
2022-12-12T22:24:27.678Z,18.83
2022-12-12T22:26:55.787Z,20.57
2022-12-12T22:29:23.952Z,18.27
2022-12-12T22:31:52.487Z,17.87
2022-12-12T22:34:23.774Z,22.83
2022-12-12T22:36:53.608Z,19.60
2022-12-12T22:39:24.260Z,19.97
2022-12-12T22:41:54.696Z,20.07
2022-12-12T22:44:25.199Z,22.23
2022-12-12T22:46:55.679Z,23.43
2022-12-12T22:49:26.633Z,21.30
2022-12-12T22:51:56.400Z,19.57
2022-12-12T22:54:25.014Z,18.47
2022-12-12T22:56:54.743Z,18.30
2022-12-12T22:59:25.325Z,17.53
2022-12-12T23:02:00.536Z,19.97
2022-12-12T23:04:28.680Z,22.33
2022-12-12T23:06:56.835Z,18.40
2022-12-12T23:09:26.962Z,18.67
2022-12-12T23:11:57.602Z,17.20
2022-12-12T23:14:27.202Z,17.20
2022-12-12T23:16:56.244Z,17.23
2022-12-12T23:19:26.182Z,17.83
2022-12-12T23:21:54.446Z,17.07
2022-12-12T23:24:22.601Z,17.73
2022-12-12T23:26:52.706Z,13.77
2022-12-12T23:29:22.330Z,15.30
2022-12-12T23:31:50.516Z,15.37
2022-12-12T23:34:23.084Z,17.27
2022-12-12T23:36:54.932Z,17.53
2022-12-12T23:39:24.361Z,17.77
2022-12-12T23:41:52.840Z,16.97
2022-12-12T23:44:24.598Z,21.07
2022-12-12T23:46:52.843Z,19.13
2022-12-12T23:49:23.908Z,18.87
2022-12-12T23:51:54.619Z,16.77
2022-12-12T23:54:26.751Z,16.67
2022-12-12T23:56:56.030Z,12.80
2022-12-12T23:59:27.502Z,16.47
